sensor_id;sensor_type;location;lat;lon;timestamp;temperature;humidity
26037;DHT22;13810;48.376;10.944;2022-07-29T00:00:11;18.10;99.90
26037;DHT22;13810;48.376;10.944;2022-07-29T00:00:42;18.10;99.90
26037;DHT22;13810;48.376;10.944;2022-07-29T00:01:15;18.10;99.90
26037;DHT22;13810;48.376;10.944;2022-07-29T00:01:46;18.10;99.90
26037;DHT22;13810;48.376;10.944;2022-07-29T00:02:17;18.10;99.90
26037;DHT22;13810;48.376;10.944;2022-07-29T00:02:48;18.10;99.90
26037;DHT22;13810;48.376;10.944;2022-07-29T00:03:18;18.10;99.90
26037;DHT22;13810;48.376;10.944;2022-07-29T00:03:49;18.10;99.90
26037;DHT22;13810;48.376;10.944;2022-07-29T00:04:20;18.10;99.90
26037;DHT22;13810;48.376;10.944;2022-07-29T00:04:50;18.20;99.90
26037;DHT22;13810;48.376;10.944;2022-07-29T00:05:21;18.10;99.90
26037;DHT22;13810;48.376;10.944;2022-07-29T00:05:52;18.20;99.90
26037;DHT22;13810;48.376;10.944;2022-07-29T00:06:24;18.10;99.90
26037;DHT22;13810;48.376;10.944;2022-07-29T00:06:54;18.10;99.90
26037;DHT22;13810;48.376;10.944;2022-07-29T00:07:25;18.10;99.90
26037;DHT22;13810;48.376;10.944;2022-07-29T00:07:56;18.20;99.90
26037;DHT22;13810;48.376;10.944;2022-07-29T00:08:27;18.20;99.90
26037;DHT22;13810;48.376;10.944;2022-07-29T00:08:57;18.20;99.90
26037;DHT22;13810;48.376;10.944;2022-07-29T00:09:28;18.10;99.90
26037;DHT22;13810;48.376;10.944;2022-07-29T00:09:58;18.10;99.90
26037;DHT22;13810;48.376;10.944;2022-07-29T00:10:29;18.10;99.90
26037;DHT22;13810;48.376;10.944;2022-07-29T00:11:00;18.10;99.90
26037;DHT22;13810;48.376;10.944;2022-07-29T00:11:30;18.10;99.90
26037;DHT22;13810;48.376;10.944;2022-07-29T00:12:01;18.10;99.90
26037;DHT22;13810;48.376;10.944;2022-07-29T00:12:32;18.10;99.90
26037;DHT22;13810;48.376;10.944;2022-07-29T00:13:02;18.10;99.90
26037;DHT22;13810;48.376;10.944;2022-07-29T00:13:33;18.10;99.90
26037;DHT22;13810;48.376;10.944;2022-07-29T00:14:04;18.10;99.90
26037;DHT22;13810;48.376;10.944;2022-07-29T00:14:35;18.10;99.90
26037;DHT22;13810;48.376;10.944;2022-07-29T00:15:06;18.10;99.90
26037;DHT22;13810;48.376;10.944;2022-07-29T00:15:37;18.10;99.90
26037;DHT22;13810;48.376;10.944;2022-07-29T00:16:08;18.10;99.90
26037;DHT22;13810;48.376;10.944;2022-07-29T00:16:38;18.10;99.90
26037;DHT22;13810;48.376;10.944;2022-07-29T00:17:09;18.10;99.90
26037;DHT22;13810;48.376;10.944;2022-07-29T00:17:40;18.10;99.90
26037;DHT22;13810;48.376;10.944;2022-07-29T00:18:11;18.10;99.90
26037;DHT22;13810;48.376;10.944;2022-07-29T00:18:41;18.10;99.90
26037;DHT22;13810;48.376;10.944;2022-07-29T00:19:12;18.10;99.90
26037;DHT22;13810;48.376;10.944;2022-07-29T00:19:43;18.10;99.90
26037;DHT22;13810;48.376;10.944;2022-07-29T00:20:13;18.10;99.90
26037;DHT22;13810;48.376;10.944;2022-07-29T00:20:44;18.10;99.90
26037;DHT22;13810;48.376;10.944;2022-07-29T00:21:15;18.10;99.90
26037;DHT22;13810;48.376;10.944;2022-07-29T00:21:45;18.10;99.90
26037;DHT22;13810;48.376;10.944;2022-07-29T00:22:16;18.10;99.90
26037;DHT22;13810;48.376;10.944;2022-07-29T00:22:46;18.00;99.90
26037;DHT22;13810;48.376;10.944;2022-07-29T00:23:17;18.00;99.90
26037;DHT22;13810;48.376;10.944;2022-07-29T00:23:48;18.00;99.90
26037;DHT22;13810;48.376;10.944;2022-07-29T00:24:18;18.00;99.90
26037;DHT22;13810;48.376;10.944;2022-07-29T00:24:49;18.00;99.90
26037;DHT22;13810;48.376;10.944;2022-07-29T00:25:20;18.00;99.90
26037;DHT22;13810;48.376;10.944;2022-07-29T00:25:50;18.00;99.90
26037;DHT22;13810;48.376;10.944;2022-07-29T00:26:21;18.00;99.90
26037;DHT22;13810;48.376;10.944;2022-07-29T00:26:52;18.00;99.90
26037;DHT22;13810;48.376;10.944;2022-07-29T00:27:23;18.00;99.90
26037;DHT22;13810;48.376;10.944;2022-07-29T00:27:53;18.00;99.90
26037;DHT22;13810;48.376;10.944;2022-07-29T00:28:24;18.00;99.90
26037;DHT22;13810;48.376;10.944;2022-07-29T00:28:55;18.10;99.90
26037;DHT22;13810;48.376;10.944;2022-07-29T00:29:25;18.10;99.90
26037;DHT22;13810;48.376;10.944;2022-07-29T00:29:56;18.10;99.90
26037;DHT22;13810;48.376;10.944;2022-07-29T00:30:26;18.10;99.90
26037;DHT22;13810;48.376;10.944;2022-07-29T00:30:57;18.10;99.90
26037;DHT22;13810;48.376;10.944;2022-07-29T00:31:28;18.00;99.90
26037;DHT22;13810;48.376;10.944;2022-07-29T00:31:59;18.10;99.90
26037;DHT22;13810;48.376;10.944;2022-07-29T00:32:29;18.10;99.90
26037;DHT22;13810;48.376;10.944;2022-07-29T00:33:00;18.10;99.90
26037;DHT22;13810;48.376;10.944;2022-07-29T00:33:31;18.10;99.90
26037;DHT22;13810;48.376;10.944;2022-07-29T00:34:01;18.00;99.90
26037;DHT22;13810;48.376;10.944;2022-07-29T00:34:33;18.10;99.90
26037;DHT22;13810;48.376;10.944;2022-07-29T00:35:22;18.10;99.90
26037;DHT22;13810;48.376;10.944;2022-07-29T00:36:11;18.00;99.90
26037;DHT22;13810;48.376;10.944;2022-07-29T00:36:41;18.10;99.90
26037;DHT22;13810;48.376;10.944;2022-07-29T00:37:12;18.10;99.90
26037;DHT22;13810;48.376;10.944;2022-07-29T00:37:43;18.00;99.90
26037;DHT22;13810;48.376;10.944;2022-07-29T00:38:16;18.00;99.90
26037;DHT22;13810;48.376;10.944;2022-07-29T00:38:48;18.00;99.90
26037;DHT22;13810;48.376;10.944;2022-07-29T00:39:19;18.00;99.90
26037;DHT22;13810;48.376;10.944;2022-07-29T00:39:49;18.00;99.90
26037;DHT22;13810;48.376;10.944;2022-07-29T00:40:20;18.00;99.90
26037;DHT22;13810;48.376;10.944;2022-07-29T00:40:51;18.00;99.90
26037;DHT22;13810;48.376;10.944;2022-07-29T00:41:21;18.00;99.90
26037;DHT22;13810;48.376;10.944;2022-07-29T00:41:52;18.00;99.90
26037;DHT22;13810;48.376;10.944;2022-07-29T00:42:23;18.00;99.90
26037;DHT22;13810;48.376;10.944;2022-07-29T00:42:53;18.00;99.90
26037;DHT22;13810;48.376;10.944;2022-07-29T00:43:24;18.00;99.90
26037;DHT22;13810;48.376;10.944;2022-07-29T00:43:55;18.00;99.90
26037;DHT22;13810;48.376;10.944;2022-07-29T00:44:26;18.00;99.90
26037;DHT22;13810;48.376;10.944;2022-07-29T00:44:56;18.00;99.90
26037;DHT22;13810;48.376;10.944;2022-07-29T00:45:27;18.00;99.90
26037;DHT22;13810;48.376;10.944;2022-07-29T00:45:57;18.00;99.90
26037;DHT22;13810;48.376;10.944;2022-07-29T00:46:28;18.00;99.90
26037;DHT22;13810;48.376;10.944;2022-07-29T00:46:59;18.00;99.90
26037;DHT22;13810;48.376;10.944;2022-07-29T00:47:29;18.00;99.90
26037;DHT22;13810;48.376;10.944;2022-07-29T00:48:00;18.00;99.90
26037;DHT22;13810;48.376;10.944;2022-07-29T00:48:31;18.00;99.90
26037;DHT22;13810;48.376;10.944;2022-07-29T00:49:02;18.00;99.90
26037;DHT22;13810;48.376;10.944;2022-07-29T00:49:33;18.00;99.90
26037;DHT22;13810;48.376;10.944;2022-07-29T00:50:05;18.00;99.90
26037;DHT22;13810;48.376;10.944;2022-07-29T00:50:36;18.00;99.90
26037;DHT22;13810;48.376;10.944;2022-07-29T00:51:07;18.00;99.90
26037;DHT22;13810;48.376;10.944;2022-07-29T00:51:38;17.90;99.90
26037;DHT22;13810;48.376;10.944;2022-07-29T00:52:10;18.00;99.90
26037;DHT22;13810;48.376;10.944;2022-07-29T00:52:42;18.00;99.90
26037;DHT22;13810;48.376;10.944;2022-07-29T00:53:12;18.00;99.90
26037;DHT22;13810;48.376;10.944;2022-07-29T00:53:43;18.00;99.90
26037;DHT22;13810;48.376;10.944;2022-07-29T00:54:14;18.00;99.90
26037;DHT22;13810;48.376;10.944;2022-07-29T00:54:45;18.00;99.90
26037;DHT22;13810;48.376;10.944;2022-07-29T00:55:16;18.00;99.90
26037;DHT22;13810;48.376;10.944;2022-07-29T00:55:47;18.00;99.90
26037;DHT22;13810;48.376;10.944;2022-07-29T00:56:18;18.00;99.90
26037;DHT22;13810;48.376;10.944;2022-07-29T00:56:49;17.90;99.90
26037;DHT22;13810;48.376;10.944;2022-07-29T00:57:20;17.90;99.90
26037;DHT22;13810;48.376;10.944;2022-07-29T00:57:52;17.90;99.90
26037;DHT22;13810;48.376;10.944;2022-07-29T00:58:24;17.90;99.90
26037;DHT22;13810;48.376;10.944;2022-07-29T00:58:56;17.90;99.90
26037;DHT22;13810;48.376;10.944;2022-07-29T00:59:28;17.90;99.90
26037;DHT22;13810;48.376;10.944;2022-07-29T00:59:59;17.90;99.90
26037;DHT22;13810;48.376;10.944;2022-07-29T01:00:30;17.90;99.90
26037;DHT22;13810;48.376;10.944;2022-07-29T01:01:00;17.90;99.90
26037;DHT22;13810;48.376;10.944;2022-07-29T01:01:31;17.90;99.90
26037;DHT22;13810;48.376;10.944;2022-07-29T01:02:02;17.90;99.90
26037;DHT22;13810;48.376;10.944;2022-07-29T01:02:33;17.90;99.90
26037;DHT22;13810;48.376;10.944;2022-07-29T01:03:04;17.90;99.90
26037;DHT22;13810;48.376;10.944;2022-07-29T01:03:34;17.90;99.90
26037;DHT22;13810;48.376;10.944;2022-07-29T01:04:06;17.90;99.90
26037;DHT22;13810;48.376;10.944;2022-07-29T01:04:37;17.80;99.90
26037;DHT22;13810;48.376;10.944;2022-07-29T01:05:08;17.90;99.90
26037;DHT22;13810;48.376;10.944;2022-07-29T01:05:39;17.80;99.90
26037;DHT22;13810;48.376;10.944;2022-07-29T01:06:11;17.80;99.90
26037;DHT22;13810;48.376;10.944;2022-07-29T01:06:42;17.90;99.90
26037;DHT22;13810;48.376;10.944;2022-07-29T01:07:13;17.80;99.90
26037;DHT22;13810;48.376;10.944;2022-07-29T01:07:44;17.90;99.90
26037;DHT22;13810;48.376;10.944;2022-07-29T01:08:16;17.80;99.90
26037;DHT22;13810;48.376;10.944;2022-07-29T01:08:47;17.90;99.90
26037;DHT22;13810;48.376;10.944;2022-07-29T01:09:19;17.80;99.90
26037;DHT22;13810;48.376;10.944;2022-07-29T01:09:50;17.80;99.90
26037;DHT22;13810;48.376;10.944;2022-07-29T01:10:22;17.90;99.90
26037;DHT22;13810;48.376;10.944;2022-07-29T01:10:54;17.80;99.90
26037;DHT22;13810;48.376;10.944;2022-07-29T01:11:25;17.90;99.90
26037;DHT22;13810;48.376;10.944;2022-07-29T01:11:56;17.80;99.90
26037;DHT22;13810;48.376;10.944;2022-07-29T01:12:28;17.80;99.90
26037;DHT22;13810;48.376;10.944;2022-07-29T01:13:02;17.80;99.90
26037;DHT22;13810;48.376;10.944;2022-07-29T01:13:33;17.80;99.90
26037;DHT22;13810;48.376;10.944;2022-07-29T01:14:05;17.80;99.90
26037;DHT22;13810;48.376;10.944;2022-07-29T01:14:37;17.90;99.90
26037;DHT22;13810;48.376;10.944;2022-07-29T01:15:08;17.90;99.90
26037;DHT22;13810;48.376;10.944;2022-07-29T01:15:44;17.90;99.90
26037;DHT22;13810;48.376;10.944;2022-07-29T01:16:23;17.90;99.90
26037;DHT22;13810;48.376;10.944;2022-07-29T01:17:06;17.80;99.90
26037;DHT22;13810;48.376;10.944;2022-07-29T01:17:52;17.80;99.90
26037;DHT22;13810;48.376;10.944;2022-07-29T01:18:31;17.90;99.90
26037;DHT22;13810;48.376;10.944;2022-07-29T01:19:46;17.80;99.90
26037;DHT22;13810;48.376;10.944;2022-07-29T01:20:17;17.90;99.90
26037;DHT22;13810;48.376;10.944;2022-07-29T01:22:42;17.90;99.90
26037;DHT22;13810;48.376;10.944;2022-07-29T01:23:58;17.80;99.90
26037;DHT22;13810;48.376;10.944;2022-07-29T01:27:49;17.80;99.90
26037;DHT22;13810;48.376;10.944;2022-07-29T01:29:05;17.80;99.90
26037;DHT22;13810;48.376;10.944;2022-07-29T01:29:43;17.80;99.90
26037;DHT22;13810;48.376;10.944;2022-07-29T01:30:15;17.80;99.90
26037;DHT22;13810;48.376;10.944;2022-07-29T01:30:47;17.80;99.90
26037;DHT22;13810;48.376;10.944;2022-07-29T01:32:07;17.80;99.90
26037;DHT22;13810;48.376;10.944;2022-07-29T01:32:24;17.80;99.90
26037;DHT22;13810;48.376;10.944;2022-07-29T01:33:01;17.80;99.90
26037;DHT22;13810;48.376;10.944;2022-07-29T01:33:36;17.70;99.90
26037;DHT22;13810;48.376;10.944;2022-07-29T01:34:44;17.80;99.90
26037;DHT22;13810;48.376;10.944;2022-07-29T01:35:25;17.70;99.90
26037;DHT22;13810;48.376;10.944;2022-07-29T01:35:56;17.70;99.90
26037;DHT22;13810;48.376;10.944;2022-07-29T01:36:43;17.70;99.90
26037;DHT22;13810;48.376;10.944;2022-07-29T01:38:13;17.70;99.90
26037;DHT22;13810;48.376;10.944;2022-07-29T01:38:50;17.70;99.90
26037;DHT22;13810;48.376;10.944;2022-07-29T01:39:36;17.70;99.90
26037;DHT22;13810;48.376;10.944;2022-07-29T01:40:22;17.70;99.90
26037;DHT22;13810;48.376;10.944;2022-07-29T01:41:08;17.70;99.90
26037;DHT22;13810;48.376;10.944;2022-07-29T01:41:54;17.70;99.90
26037;DHT22;13810;48.376;10.944;2022-07-29T01:42:43;17.70;99.90
26037;DHT22;13810;48.376;10.944;2022-07-29T01:43:20;17.70;99.90
26037;DHT22;13810;48.376;10.944;2022-07-29T01:43:56;17.70;99.90
26037;DHT22;13810;48.376;10.944;2022-07-29T01:44:37;17.70;99.90
26037;DHT22;13810;48.376;10.944;2022-07-29T01:45:23;17.70;99.90
26037;DHT22;13810;48.376;10.944;2022-07-29T01:46:00;17.60;99.90
26037;DHT22;13810;48.376;10.944;2022-07-29T01:46:36;17.60;99.90
26037;DHT22;13810;48.376;10.944;2022-07-29T01:47:13;17.60;99.90
26037;DHT22;13810;48.376;10.944;2022-07-29T01:48:05;17.60;99.90
26037;DHT22;13810;48.376;10.944;2022-07-29T01:48:42;17.60;99.90
26037;DHT22;13810;48.376;10.944;2022-07-29T01:49:28;17.60;99.90
26037;DHT22;13810;48.376;10.944;2022-07-29T01:50:00;17.60;99.90
26037;DHT22;13810;48.376;10.944;2022-07-29T01:50:37;17.60;99.90
26037;DHT22;13810;48.376;10.944;2022-07-29T01:51:24;17.60;99.90
26037;DHT22;13810;48.376;10.944;2022-07-29T01:52:01;17.60;99.90
26037;DHT22;13810;48.376;10.944;2022-07-29T01:52:42;17.50;99.90
26037;DHT22;13810;48.376;10.944;2022-07-29T01:53:14;17.50;99.90
26037;DHT22;13810;48.376;10.944;2022-07-29T01:54:07;17.50;99.90
26037;DHT22;13810;48.376;10.944;2022-07-29T01:54:41;17.50;99.90
26037;DHT22;13810;48.376;10.944;2022-07-29T01:55:15;17.50;99.90
26037;DHT22;13810;48.376;10.944;2022-07-29T01:55:48;17.50;99.90
26037;DHT22;13810;48.376;10.944;2022-07-29T01:56:19;17.50;99.90
26037;DHT22;13810;48.376;10.944;2022-07-29T01:56:51;17.50;99.90
26037;DHT22;13810;48.376;10.944;2022-07-29T01:57:29;17.40;99.90
26037;DHT22;13810;48.376;10.944;2022-07-29T01:58:01;17.40;99.90
26037;DHT22;13810;48.376;10.944;2022-07-29T01:58:35;17.50;99.90
26037;DHT22;13810;48.376;10.944;2022-07-29T01:59:08;17.50;99.90
26037;DHT22;13810;48.376;10.944;2022-07-29T01:59:41;17.40;99.90
26037;DHT22;13810;48.376;10.944;2022-07-29T02:00:13;17.40;99.90
26037;DHT22;13810;48.376;10.944;2022-07-29T02:00:45;17.40;99.90
26037;DHT22;13810;48.376;10.944;2022-07-29T02:01:17;17.40;99.90
26037;DHT22;13810;48.376;10.944;2022-07-29T02:01:50;17.40;99.90
26037;DHT22;13810;48.376;10.944;2022-07-29T02:02:23;17.40;99.90
26037;DHT22;13810;48.376;10.944;2022-07-29T02:02:56;17.40;99.90
26037;DHT22;13810;48.376;10.944;2022-07-29T02:03:30;17.40;99.90
26037;DHT22;13810;48.376;10.944;2022-07-29T02:04:03;17.40;99.90
26037;DHT22;13810;48.376;10.944;2022-07-29T02:04:36;17.40;99.90
26037;DHT22;13810;48.376;10.944;2022-07-29T02:05:11;17.40;99.90
26037;DHT22;13810;48.376;10.944;2022-07-29T02:05:44;17.40;99.90
26037;DHT22;13810;48.376;10.944;2022-07-29T02:06:19;17.30;99.90
26037;DHT22;13810;48.376;10.944;2022-07-29T02:06:53;17.30;99.90
26037;DHT22;13810;48.376;10.944;2022-07-29T02:07:27;17.30;99.90
26037;DHT22;13810;48.376;10.944;2022-07-29T02:08:01;17.30;99.90
26037;DHT22;13810;48.376;10.944;2022-07-29T02:08:32;17.30;99.90
26037;DHT22;13810;48.376;10.944;2022-07-29T02:09:04;17.30;99.90
26037;DHT22;13810;48.376;10.944;2022-07-29T02:09:38;17.30;99.90
26037;DHT22;13810;48.376;10.944;2022-07-29T02:10:10;17.30;99.90
26037;DHT22;13810;48.376;10.944;2022-07-29T02:10:42;17.30;99.90
26037;DHT22;13810;48.376;10.944;2022-07-29T02:11:14;17.30;99.90
26037;DHT22;13810;48.376;10.944;2022-07-29T02:11:53;17.30;99.90
26037;DHT22;13810;48.376;10.944;2022-07-29T02:12:26;17.30;99.90
26037;DHT22;13810;48.376;10.944;2022-07-29T02:12:59;17.20;99.90
26037;DHT22;13810;48.376;10.944;2022-07-29T02:13:32;17.20;99.90
26037;DHT22;13810;48.376;10.944;2022-07-29T02:14:05;17.20;99.90
26037;DHT22;13810;48.376;10.944;2022-07-29T02:14:39;17.20;99.90
26037;DHT22;13810;48.376;10.944;2022-07-29T02:15:11;17.20;99.90
26037;DHT22;13810;48.376;10.944;2022-07-29T02:15:43;17.20;99.90
26037;DHT22;13810;48.376;10.944;2022-07-29T02:16:16;17.10;99.90
26037;DHT22;13810;48.376;10.944;2022-07-29T02:16:51;17.10;99.90
26037;DHT22;13810;48.376;10.944;2022-07-29T02:17:26;17.10;99.90
26037;DHT22;13810;48.376;10.944;2022-07-29T02:18:11;17.10;99.90
26037;DHT22;13810;48.376;10.944;2022-07-29T02:18:45;17.10;99.90
26037;DHT22;13810;48.376;10.944;2022-07-29T02:19:17;17.10;99.90
26037;DHT22;13810;48.376;10.944;2022-07-29T02:19:49;17.10;99.90
26037;DHT22;13810;48.376;10.944;2022-07-29T02:20:22;17.10;99.90
26037;DHT22;13810;48.376;10.944;2022-07-29T02:20:55;17.00;99.90
26037;DHT22;13810;48.376;10.944;2022-07-29T02:21:27;17.10;99.90
26037;DHT22;13810;48.376;10.944;2022-07-29T02:22:00;17.00;99.90
26037;DHT22;13810;48.376;10.944;2022-07-29T02:22:33;17.00;99.90
26037;DHT22;13810;48.376;10.944;2022-07-29T02:23:06;17.10;99.90
26037;DHT22;13810;48.376;10.944;2022-07-29T02:23:38;17.00;99.90
26037;DHT22;13810;48.376;10.944;2022-07-29T02:24:11;17.00;99.90
26037;DHT22;13810;48.376;10.944;2022-07-29T02:24:44;17.00;99.90
26037;DHT22;13810;48.376;10.944;2022-07-29T02:25:16;17.00;99.90
26037;DHT22;13810;48.376;10.944;2022-07-29T02:25:53;16.90;99.90
26037;DHT22;13810;48.376;10.944;2022-07-29T02:26:25;17.00;99.90
26037;DHT22;13810;48.376;10.944;2022-07-29T02:26:59;16.90;99.90
26037;DHT22;13810;48.376;10.944;2022-07-29T02:27:33;16.90;99.90
26037;DHT22;13810;48.376;10.944;2022-07-29T02:28:06;16.90;99.90
26037;DHT22;13810;48.376;10.944;2022-07-29T02:28:39;16.90;99.90
26037;DHT22;13810;48.376;10.944;2022-07-29T02:29:11;16.90;99.90
26037;DHT22;13810;48.376;10.944;2022-07-29T02:29:43;16.80;99.90
26037;DHT22;13810;48.376;10.944;2022-07-29T02:30:15;16.90;99.90
26037;DHT22;13810;48.376;10.944;2022-07-29T02:30:47;16.90;99.90
26037;DHT22;13810;48.376;10.944;2022-07-29T02:31:20;16.90;99.90
26037;DHT22;13810;48.376;10.944;2022-07-29T02:31:53;16.90;99.90
26037;DHT22;13810;48.376;10.944;2022-07-29T02:32:24;16.90;99.90
26037;DHT22;13810;48.376;10.944;2022-07-29T02:32:56;16.90;99.90
26037;DHT22;13810;48.376;10.944;2022-07-29T02:33:30;16.90;99.90
26037;DHT22;13810;48.376;10.944;2022-07-29T02:34:07;16.90;99.90
26037;DHT22;13810;48.376;10.944;2022-07-29T02:34:39;16.90;99.90
26037;DHT22;13810;48.376;10.944;2022-07-29T02:35:12;16.90;99.90
26037;DHT22;13810;48.376;10.944;2022-07-29T02:35:47;16.90;99.90
26037;DHT22;13810;48.376;10.944;2022-07-29T02:36:21;16.80;99.90
26037;DHT22;13810;48.376;10.944;2022-07-29T02:36:54;16.80;99.90
26037;DHT22;13810;48.376;10.944;2022-07-29T02:37:27;16.80;99.90
26037;DHT22;13810;48.376;10.944;2022-07-29T02:37:58;16.80;99.90
26037;DHT22;13810;48.376;10.944;2022-07-29T02:38:48;16.80;99.90
26037;DHT22;13810;48.376;10.944;2022-07-29T02:39:24;16.80;99.90
26037;DHT22;13810;48.376;10.944;2022-07-29T02:39:57;16.80;99.90
26037;DHT22;13810;48.376;10.944;2022-07-29T02:40:28;16.80;99.90
26037;DHT22;13810;48.376;10.944;2022-07-29T02:41:03;16.80;99.90
26037;DHT22;13810;48.376;10.944;2022-07-29T02:41:41;16.80;99.90
26037;DHT22;13810;48.376;10.944;2022-07-29T02:42:16;16.80;99.90
26037;DHT22;13810;48.376;10.944;2022-07-29T02:42:47;16.80;99.90
26037;DHT22;13810;48.376;10.944;2022-07-29T02:43:19;16.80;99.90
26037;DHT22;13810;48.376;10.944;2022-07-29T02:43:55;16.80;99.90
26037;DHT22;13810;48.376;10.944;2022-07-29T02:44:26;16.70;99.90
26037;DHT22;13810;48.376;10.944;2022-07-29T02:44:57;16.70;99.90
26037;DHT22;13810;48.376;10.944;2022-07-29T02:45:29;16.80;99.90
26037;DHT22;13810;48.376;10.944;2022-07-29T02:46:00;16.70;99.90
26037;DHT22;13810;48.376;10.944;2022-07-29T02:46:35;16.70;99.90
26037;DHT22;13810;48.376;10.944;2022-07-29T02:47:47;16.70;99.90
26037;DHT22;13810;48.376;10.944;2022-07-29T02:48:16;16.70;99.90
26037;DHT22;13810;48.376;10.944;2022-07-29T02:48:55;16.70;99.90
26037;DHT22;13810;48.376;10.944;2022-07-29T02:49:57;16.70;99.90
26037;DHT22;13810;48.376;10.944;2022-07-29T02:50:33;16.70;99.90
26037;DHT22;13810;48.376;10.944;2022-07-29T02:51:08;16.60;99.90
26037;DHT22;13810;48.376;10.944;2022-07-29T02:51:51;16.60;99.90
26037;DHT22;13810;48.376;10.944;2022-07-29T02:52:34;16.60;99.90
26037;DHT22;13810;48.376;10.944;2022-07-29T02:53:09;16.60;99.90
26037;DHT22;13810;48.376;10.944;2022-07-29T02:53:44;16.60;99.90
26037;DHT22;13810;48.376;10.944;2022-07-29T02:54:29;16.60;99.90
26037;DHT22;13810;48.376;10.944;2022-07-29T02:55:11;16.60;99.90
26037;DHT22;13810;48.376;10.944;2022-07-29T02:55:49;16.60;99.90
26037;DHT22;13810;48.376;10.944;2022-07-29T02:56:25;16.60;99.90
26037;DHT22;13810;48.376;10.944;2022-07-29T02:56:58;16.60;99.90
26037;DHT22;13810;48.376;10.944;2022-07-29T02:58:24;16.50;99.90
26037;DHT22;13810;48.376;10.944;2022-07-29T02:59:00;16.50;99.90
26037;DHT22;13810;48.376;10.944;2022-07-29T02:59:33;16.50;99.90
26037;DHT22;13810;48.376;10.944;2022-07-29T03:00:07;16.50;99.90
26037;DHT22;13810;48.376;10.944;2022-07-29T03:00:40;16.50;99.90
26037;DHT22;13810;48.376;10.944;2022-07-29T03:01:16;16.50;99.90
26037;DHT22;13810;48.376;10.944;2022-07-29T03:01:51;16.50;99.90
26037;DHT22;13810;48.376;10.944;2022-07-29T03:02:22;16.50;99.90
26037;DHT22;13810;48.376;10.944;2022-07-29T03:02:56;16.50;99.90
26037;DHT22;13810;48.376;10.944;2022-07-29T03:03:34;16.50;99.90
26037;DHT22;13810;48.376;10.944;2022-07-29T03:04:08;16.40;99.90
26037;DHT22;13810;48.376;10.944;2022-07-29T03:04:41;16.40;99.90
26037;DHT22;13810;48.376;10.944;2022-07-29T03:05:16;16.40;99.90
26037;DHT22;13810;48.376;10.944;2022-07-29T03:05:47;16.40;99.90
26037;DHT22;13810;48.376;10.944;2022-07-29T03:06:20;16.40;99.90
26037;DHT22;13810;48.376;10.944;2022-07-29T03:06:52;16.40;99.90
26037;DHT22;13810;48.376;10.944;2022-07-29T03:07:23;16.40;99.90
26037;DHT22;13810;48.376;10.944;2022-07-29T03:07:58;16.40;99.90
26037;DHT22;13810;48.376;10.944;2022-07-29T03:08:34;16.40;99.90
26037;DHT22;13810;48.376;10.944;2022-07-29T03:09:07;16.40;99.90
26037;DHT22;13810;48.376;10.944;2022-07-29T03:09:38;16.40;99.90
26037;DHT22;13810;48.376;10.944;2022-07-29T03:10:09;16.40;99.90
26037;DHT22;13810;48.376;10.944;2022-07-29T03:10:43;16.40;99.90
26037;DHT22;13810;48.376;10.944;2022-07-29T03:11:15;16.40;99.90
26037;DHT22;13810;48.376;10.944;2022-07-29T03:11:47;16.40;99.90
26037;DHT22;13810;48.376;10.944;2022-07-29T03:12:18;16.40;99.90
26037;DHT22;13810;48.376;10.944;2022-07-29T03:12:49;16.40;99.90
26037;DHT22;13810;48.376;10.944;2022-07-29T03:13:21;16.40;99.90
26037;DHT22;13810;48.376;10.944;2022-07-29T03:13:52;16.40;99.90
26037;DHT22;13810;48.376;10.944;2022-07-29T03:14:24;16.40;99.90
26037;DHT22;13810;48.376;10.944;2022-07-29T03:14:56;16.40;99.90
26037;DHT22;13810;48.376;10.944;2022-07-29T03:15:27;16.50;99.90
26037;DHT22;13810;48.376;10.944;2022-07-29T03:15:59;16.40;99.90
26037;DHT22;13810;48.376;10.944;2022-07-29T03:16:30;16.40;99.90
26037;DHT22;13810;48.376;10.944;2022-07-29T03:17:01;16.50;99.90
26037;DHT22;13810;48.376;10.944;2022-07-29T03:17:33;16.50;99.90
26037;DHT22;13810;48.376;10.944;2022-07-29T03:18:05;16.50;99.90
26037;DHT22;13810;48.376;10.944;2022-07-29T03:18:37;16.50;99.90
26037;DHT22;13810;48.376;10.944;2022-07-29T03:19:08;16.50;99.90
26037;DHT22;13810;48.376;10.944;2022-07-29T03:19:39;16.50;99.90
26037;DHT22;13810;48.376;10.944;2022-07-29T03:20:11;16.50;99.90
26037;DHT22;13810;48.376;10.944;2022-07-29T03:20:43;16.40;99.90
26037;DHT22;13810;48.376;10.944;2022-07-29T03:21:14;16.50;99.90
26037;DHT22;13810;48.376;10.944;2022-07-29T03:21:44;16.50;99.90
26037;DHT22;13810;48.376;10.944;2022-07-29T03:22:15;16.50;99.90
26037;DHT22;13810;48.376;10.944;2022-07-29T03:22:46;16.50;99.90
26037;DHT22;13810;48.376;10.944;2022-07-29T03:23:20;16.50;99.90
26037;DHT22;13810;48.376;10.944;2022-07-29T03:23:53;16.50;99.90
26037;DHT22;13810;48.376;10.944;2022-07-29T03:24:30;16.50;99.90
26037;DHT22;13810;48.376;10.944;2022-07-29T03:25:08;16.50;99.90
26037;DHT22;13810;48.376;10.944;2022-07-29T03:25:38;16.50;99.90
26037;DHT22;13810;48.376;10.944;2022-07-29T03:26:09;16.50;99.90
26037;DHT22;13810;48.376;10.944;2022-07-29T03:26:40;16.50;99.90
26037;DHT22;13810;48.376;10.944;2022-07-29T03:27:11;16.50;99.90
26037;DHT22;13810;48.376;10.944;2022-07-29T03:27:42;16.40;99.90
26037;DHT22;13810;48.376;10.944;2022-07-29T03:28:12;16.50;99.90
26037;DHT22;13810;48.376;10.944;2022-07-29T03:28:43;16.40;99.90
26037;DHT22;13810;48.376;10.944;2022-07-29T03:29:14;16.40;99.90
26037;DHT22;13810;48.376;10.944;2022-07-29T03:29:44;16.50;99.90
26037;DHT22;13810;48.376;10.944;2022-07-29T03:30:15;16.40;99.90
26037;DHT22;13810;48.376;10.944;2022-07-29T03:30:46;16.40;99.90
26037;DHT22;13810;48.376;10.944;2022-07-29T03:31:17;16.40;99.90
26037;DHT22;13810;48.376;10.944;2022-07-29T03:31:47;16.40;99.90
26037;DHT22;13810;48.376;10.944;2022-07-29T03:32:18;16.40;99.90
26037;DHT22;13810;48.376;10.944;2022-07-29T03:32:50;16.40;99.90
26037;DHT22;13810;48.376;10.944;2022-07-29T03:33:21;16.40;99.90
26037;DHT22;13810;48.376;10.944;2022-07-29T03:33:51;16.40;99.90
26037;DHT22;13810;48.376;10.944;2022-07-29T03:34:22;16.40;99.90
26037;DHT22;13810;48.376;10.944;2022-07-29T03:34:53;16.30;99.90
26037;DHT22;13810;48.376;10.944;2022-07-29T03:35:23;16.30;99.90
26037;DHT22;13810;48.376;10.944;2022-07-29T03:35:55;16.30;99.90
26037;DHT22;13810;48.376;10.944;2022-07-29T03:36:25;16.20;99.90
26037;DHT22;13810;48.376;10.944;2022-07-29T03:36:56;16.20;99.90